Latest Weather Observations for Tewantin

IDQ60801

Issued at 7:35 pm EST Friday 28 November 2014 (issued every 30 minutes, with the page automatically refreshed every 10 minutes)

About weather observations | Map of weather stations | Latest weather observations for QLD | Other Formats
Station Details ID: 040908 Name: TEWANTIN RSL PARK Lat: -26.39 Lon: 153.04 Height: 6.4 m
Data from the previous 72 hours. | See also: Recent months at Tewantin
Date/Time
EST
Temp
°C
App
Temp
°C
Dew
Point
Rel
Hum
%
Delta-T
°C
Wind Press
QNH
hPa
Press
MSL
hPa
Rain
since 9 am
mm
Dir
 
Spd
km/h
Gust
km/h
Spd
kts
Gust
kts
28/07:30pm 23.3 21.4 17.7 71 3.5 ESE 24 35 13 19 1018.2 1018.2 9.0
28/07:00pm 23.1 21.9 18.4 75 2.9 ESE 22 35 12 19 1017.8 1017.8 9.0
28/06:30pm 22.6 22.7 19.9 85 1.7 ESE 19 30 10 16 1017.6 1017.6 9.0
28/06:00pm 22.9 24.2 20.2 85 1.7 ESE 13 24 7 13 1017.4 1017.4 8.4
28/05:30pm 22.0 23.5 20.5 91 1.0 E 13 20 7 11 1017.3 1017.3 8.2
28/05:00pm 21.9 24.1 20.4 91 1.0 SSE 9 15 5 8 1017.1 1017.1 7.4
28/04:30pm 22.4 23.3 19.2 82 2.0 ESE 13 20 7 11 1016.7 1016.7 4.6
28/04:00pm 23.7 23.8 19.2 76 2.9 SE 17 24 9 13 1016.6 1016.6 2.8
28/03:30pm 24.6 24.8 18.5 69 3.9 ESE 15 28 8 15 1016.9 1016.9 2.8
28/03:00pm 24.6 24.6 19.0 71 3.6 ESE 17 28 9 15 1016.9 1016.9 2.8
28/02:30pm 24.7 24.7 18.9 70 3.7 ESE 17 28 9 15 1016.7 1016.7 2.8
28/02:00pm 24.7 25.1 19.1 71 3.6 ESE 15 28 8 15 1017.0 1017.0 2.8
28/01:30pm 24.1 25.6 19.8 77 2.8 ESE 11 22 6 12 1017.5 1017.5 2.8
28/01:00pm 23.8 27.3 21.1 85 1.8 E 4 11 2 6 1017.5 1017.5 2.8
28/12:30pm 22.3 26.0 21.5 95 0.5 ESE 4 9 2 5 1017.9 1017.9 2.8
28/12:00pm 21.7 21.8 20.0 90 1.1 ESE 19 30 10 16 1018.4 1018.4 0.8
28/11:30am 24.6 24.6 19.7 74 3.2 ESE 19 28 10 15 1018.2 1018.2 0.2
28/11:00am 23.4 24.4 20.3 83 2.0 ESE 15 24 8 13 1018.7 1018.7 0.2
28/10:30am 24.6 25.3 19.7 74 3.2 E 15 22 8 12 1018.2 1018.2 0.2
28/10:00am 24.9 25.3 19.9 74 3.2 E 17 24 9 13 1018.2 1018.2 0.2
28/09:30am 24.0 25.6 20.7 82 2.2 SE 13 20 7 11 1018.3 1018.3 0.0
28/09:00am 24.2 26.2 20.7 81 2.3 S 11 17 6 9 1018.2 1018.2 4.6
28/08:30am 23.8 24.7 20.1 80 2.4 S 15 22 8 12 1017.9 1017.9 4.6
28/08:00am 23.8 25.8 21.5 87 1.5 S 13 20 7 11 1017.7 1017.7 4.6
28/07:30am 22.0 24.9 21.7 98 0.2 S 9 17 5 9 1017.6 1017.6 4.6
28/07:00am 21.4 23.2 21.1 98 0.2 S 13 19 7 10 1017.8 1017.8 4.4
28/06:30am 21.3 24.2 21.1 99 0.1 S 7 13 4 7 1017.5 1017.5 4.2
28/06:00am 20.9 24.2 20.7 99 0.1 SSW 4 9 2 5 1017.1 1017.1 4.0
28/05:30am 20.3 22.7 20.0 98 0.2 SSW 7 11 4 6 1016.8 1016.8 4.0
28/05:00am 20.2 23.9 19.9 98 0.2 CALM 0 0 0 0 1016.6 1016.6 4.0
28/04:30am 20.0 23.2 19.7 98 0.2 WSW 2 9 1 5 1016.4 1016.4 4.0
28/04:00am 20.1 23.6 19.6 97 0.3 CALM 0 6 0 3 1016.0 1016.0 4.0
28/03:30am 19.8 20.8 18.6 93 0.7 ENE 11 24 6 13 1016.1 1016.1 4.0
28/03:00am 21.2 24.1 19.8 92 0.9 S 4 9 2 5 1015.5 1015.5 1.0
28/02:30am 21.5 24.0 20.3 93 0.8 SSE 7 13 4 7 1015.4 1015.4 0.8
28/02:00am 22.2 24.9 21.4 95 0.5 SSW 9 15 5 8 1015.3 1015.3 0.8
28/01:30am 22.5 25.9 21.0 91 1.0 SSE 4 7 2 4 1015.5 1015.5 0.6
28/01:00am 23.2 26.5 20.7 86 1.6 SSW 4 9 2 5 1015.6 1015.6 0.2
28/12:30am 23.3 27.2 20.4 84 1.9 CALM 0 6 0 3 1015.7 1015.7 0.2
28/12:00am 23.3 26.4 21.0 87 1.5 SW 6 9 3 5 1016.3 1016.3 0.2
 
Date/Time
EST
Temp
°C
App
Temp
°C
Dew
Point
Rel
Hum
%
Delta-T
°C
Wind Press
QNH
hPa
Press
MSL
hPa
Rain
since 9 am
mm
Dir
 
Spd
km/h
Gust
km/h
Spd
kts
Gust
kts
27/11:30pm 23.6 27.2 19.7 79 2.5 CALM 0 0 0 0 1016.1 1016.1 0.2
27/11:00pm 23.9 26.5 20.0 79 2.5 ENE 6 9 3 5 1016.6 1016.6 0.2
27/10:30pm 24.0 26.1 20.1 79 2.5 ENE 9 15 5 8 1016.7 1016.7 0.2
27/10:00pm 24.2 26.4 20.3 79 2.5 ENE 9 19 5 10 1017.0 1017.0 0.2
27/09:30pm 24.3 26.8 20.2 78 2.7 E 7 9 4 5 1016.9 1016.9 0.0
27/09:00pm 24.7 27.0 20.6 78 2.7 E 9 13 5 7 1016.7 1016.7 0.0
27/08:30pm 24.6 26.6 20.7 79 2.6 NE 11 15 6 8 1016.2 1016.2 0.0
27/08:00pm 24.6 27.1 20.3 77 2.8 ENE 7 13 4 7 1016.3 1016.3 0.0
27/07:30pm 24.8 27.0 20.3 76 2.9 E 9 13 5 7 1016.3 1016.3 0.0
27/07:00pm 24.7 26.9 20.4 77 2.8 E 9 13 5 7 1015.8 1015.8 0.0
27/06:30pm 24.7 26.6 20.6 78 2.7 ENE 11 17 6 9 1015.3 1015.3 0.0
27/06:00pm 25.2 27.3 20.9 77 2.8 NE 11 19 6 10 1014.6 1014.6 0.0
27/05:30pm 25.6 27.2 20.8 75 3.2 NE 13 19 7 10 1014.3 1014.3 0.0
27/05:00pm 25.8 27.2 20.4 72 3.5 NE 13 19 7 10 1013.5 1013.5 0.0
27/04:30pm 25.9 26.5 20.2 71 3.7 NE 17 22 9 12 1012.9 1012.9 0.0
27/04:00pm 26.4 27.0 20.3 69 4.0 NE 17 24 9 13 1012.8 1012.8 0.0
27/03:30pm 26.3 26.4 19.2 65 4.6 NE 17 24 9 13 1013.1 1013.1 0.0
27/03:00pm 26.9 27.2 19.5 64 4.8 ENE 17 26 9 14 1013.4 1013.4 0.0
27/02:30pm 27.1 27.5 19.9 64 4.7 NE 17 24 9 13 1013.5 1013.5 0.0
27/02:00pm 27.2 27.2 19.8 64 4.8 NE 19 26 10 14 1013.7 1013.7 0.0
27/01:30pm 27.7 28.2 20.0 63 5.0 NE 17 28 9 15 1014.0 1014.0 0.0
27/01:00pm 27.4 27.1 19.2 61 5.3 NE 19 26 10 14 1014.2 1014.2 0.0
27/12:30pm 28.1 28.3 19.3 58 5.7 NE 17 22 9 12 1014.5 1014.5 0.0
27/12:00pm 27.8 28.1 18.8 58 5.8 NE 15 24 8 13 1014.9 1014.9 0.0
27/11:30am 28.2 29.3 19.7 60 5.5 NE 13 22 7 12 1015.0 1015.0 0.0
27/11:00am 28.3 29.6 20.1 61 5.4 NE 13 22 7 12 1015.5 1015.5 0.0
27/10:30am 27.7 29.2 19.8 62 5.1 NE 11 17 6 9 1015.7 1015.7 0.0
27/10:00am 27.1 28.4 19.4 62 5.0 NNE 11 17 6 9 1016.1 1016.1 0.0
27/09:30am 26.5 28.2 18.1 60 5.3 E 6 15 3 8 1016.4 1016.4 0.0
27/09:00am 27.0 29.4 19.6 64 4.8 ENE 6 9 3 5 1016.4 1016.4 0.0
27/08:30am 26.2 28.1 19.8 68 4.2 N 9 13 5 7 1016.7 1016.7 0.0
27/08:00am 25.8 28.3 19.9 70 3.8 NNE 6 11 3 6 1016.8 1016.8 0.0
27/07:30am 25.0 27.1 19.4 71 3.6 N 7 15 4 8 1016.8 1016.8 0.0
27/07:00am 25.0 27.6 20.5 76 2.9 NNW 7 13 4 7 1016.7 1016.7 0.0
27/06:30am 23.9 27.6 20.8 83 2.0 NNW 2 7 1 4 1016.2 1016.2 0.0
27/06:00am 22.9 27.0 20.8 88 1.4 CALM 0 0 0 0 1016.2 1016.2 0.0
27/05:30am 22.6 26.9 21.1 91 1.0 CALM 0 0 0 0 1016.0 1016.0 0.0
27/05:00am 22.6 26.9 21.1 91 1.0 CALM 0 0 0 0 1015.7 1015.7 0.0
27/04:30am 22.4 26.6 21.0 92 0.9 CALM 0 0 0 0 1015.3 1015.3 0.0
27/04:00am 22.4 26.2 20.9 91 1.0 WSW 2 6 1 3 1015.2 1015.2 0.0
27/03:30am 22.2 25.9 20.8 92 0.9 SSW 2 7 1 4 1015.3 1015.3 0.0
27/03:00am 22.2 25.1 20.7 91 1.0 WNW 6 7 3 4 1014.9 1014.9 0.0
27/02:30am 22.2 25.5 20.7 91 1.0 NW 4 9 2 5 1014.8 1014.8 0.0
27/02:00am 22.4 26.6 20.9 91 1.0 CALM 0 0 0 0 1014.9 1014.9 0.0
27/01:30am 22.4 26.6 20.9 91 1.0 CALM 0 0 0 0 1015.1 1015.1 0.0
27/01:00am 22.1 26.1 20.6 91 1.0 CALM 0 0 0 0 1015.5 1015.5 0.0
27/12:30am 22.4 26.4 20.5 89 1.2 CALM 0 0 0 0 1015.9 1015.9 0.0
27/12:00am 22.4 26.3 20.3 88 1.4 CALM 0 0 0 0 1016.1 1016.1 0.0
 
Date/Time
EST
Temp
°C
App
Temp
°C
Dew
Point
Rel
Hum
%
Delta-T
°C
Wind Press
QNH
hPa
Press
MSL
hPa
Rain
since 9 am
mm
Dir
 
Spd
km/h
Gust
km/h
Spd
kts
Gust
kts
26/11:30pm 22.4 26.4 20.5 89 1.2 CALM 0 0 0 0 1016.6 1016.6 0.0
26/11:00pm 22.7 26.6 20.4 87 1.5 CALM 0 0 0 0 1017.1 1017.1 0.0
26/10:30pm 22.9 26.5 20.6 87 1.5 SW 2 7 1 4 1017.4 1017.4 0.0
26/10:00pm 23.0 26.4 20.1 84 1.9 SSW 2 6 1 3 1017.6 1017.6 0.0
26/09:30pm 23.1 27.0 20.4 85 1.7 CALM 0 0 0 0 1017.5 1017.5 0.0
26/09:00pm 23.5 27.2 20.8 85 1.8 E 2 7 1 4 1017.4 1017.4 0.0
26/08:30pm 23.5 26.3 20.4 83 2.0 ENE 6 7 3 4 1017.2 1017.2 0.0
26/08:00pm 23.6 26.9 20.7 84 1.9 NE 4 9 2 5 1016.8 1016.8 0.0
26/07:30pm 23.9 26.7 20.8 83 2.0 NE 7 11 4 6 1016.7 1016.7 0.0
26/07:00pm 23.9 26.5 20.0 79 2.5 NE 6 9 3 5 1016.5 1016.5 0.0
26/06:30pm 24.3 26.4 20.2 78 2.7 NE 9 13 5 7 1016.2 1016.2 0.0
26/06:00pm 24.7 27.4 20.6 78 2.7 NE 7 11 4 6 1016.1 1016.1 0.0
26/05:30pm 24.8 26.1 20.1 75 3.0 NE 13 17 7 9 1015.8 1015.8 0.0
26/05:00pm 25.4 26.7 20.2 73 3.4 NE 13 17 7 9 1015.4 1015.4 0.0
26/04:30pm 25.8 27.2 20.4 72 3.5 NE 13 22 7 12 1015.0 1015.0 0.0
26/04:00pm 26.0 26.9 20.1 70 3.8 NE 15 24 8 13 1014.8 1014.8 0.0
26/03:30pm 26.2 26.5 19.6 67 4.3 ENE 17 24 9 13 1014.8 1014.8 0.0
26/03:00pm 26.5 26.2 19.6 66 4.5 NE 20 28 11 15 1014.8 1014.8 0.0
26/02:30pm 26.5 27.0 20.1 68 4.2 NE 17 24 9 13 1014.9 1014.9 0.0
26/02:00pm 27.1 27.9 21.4 71 3.8 NE 19 28 10 15 1015.1 1015.1 0.0
26/01:30pm 26.2 26.5 20.3 70 3.9 NE 19 28 10 15 1015.3 1015.3 0.0
26/01:00pm 26.4 26.2 19.8 67 4.3 NE 20 32 11 17 1015.8 1015.8 0.0
26/12:30pm 27.1 27.2 19.9 64 4.7 NE 19 32 10 17 1016.2 1016.2 0.0
26/12:00pm 27.1 28.0 20.9 69 4.1 NE 17 28 9 15 1016.6 1016.6 0.0
26/11:30am 27.5 28.7 20.6 66 4.5 NE 15 24 8 13 1016.6 1016.6 0.0
26/11:00am 27.0 28.2 20.6 68 4.2 NE 15 22 8 12 1016.8 1016.8 0.0
26/10:30am 26.7 27.8 19.6 65 4.6 NE 13 24 7 13 1017.0 1017.0 0.0
26/10:00am 26.8 27.9 20.4 68 4.2 ENE 15 24 8 13 1016.9 1016.9 0.0
26/09:30am 26.6 28.4 21.1 72 3.6 NNE 13 24 7 13 1017.0 1017.0 0.0
26/09:00am 25.6 26.9 20.2 72 3.5 NNE 13 20 7 11 1017.2 1017.2 0.0
26/08:30am 26.6 27.6 20.2 68 4.2 NNE 15 26 8 14 1017.1 1017.1 0.0
26/08:00am 26.3 28.4 21.7 76 3.1 NNE 13 19 7 10 1017.3 1017.3 0.0
26/07:30am 25.5 27.3 21.2 77 2.8 NNE 13 20 7 11 1016.9 1016.9 0.0
26/07:00am 25.4 29.2 22.7 85 1.8 NNE 7 11 4 6 1016.7 1016.7 0.0
26/06:30am 24.3 27.8 22.2 88 1.4 N 7 11 4 6 1016.6 1016.6 0.0
26/06:00am 23.4 28.2 22.2 93 0.8 CALM 0 0 0 0 1016.2 1016.2 0.0
26/05:30am 22.8 27.7 22.3 97 0.3 CALM 0 6 0 3 1015.9 1015.9 0.0
26/05:00am 22.3 26.9 21.8 97 0.3 CALM 0 0 0 0 1015.8 1015.8 0.0
26/04:30am 22.0 25.2 21.3 96 0.5 SW 6 7 3 4 1015.6 1015.6 0.0
26/04:00am 22.3 26.8 21.6 96 0.5 CALM 0 0 0 0 1015.3 1015.3 0.0
26/03:30am 22.6 27.1 21.6 94 0.7 CALM 0 0 0 0 1015.3 1015.3 0.0
26/03:00am 22.9 27.3 22.1 95 0.5 N 2 6 1 3 1015.1 1015.1 0.0
26/02:30am 23.2 26.8 22.4 95 0.5 N 7 9 4 5 1015.1 1015.1 0.0
26/02:00am 23.3 27.2 22.5 95 0.5 N 6 9 3 5 1015.4 1015.4 0.0
26/01:30am 23.4 27.1 22.6 95 0.5 N 7 9 4 5 1015.4 1015.4 0.0
26/01:00am 23.7 27.1 22.7 94 0.7 N 9 13 5 7 1015.8 1015.8 0.0
26/12:30am 24.1 28.4 22.7 92 0.9 ENE 4 7 2 4 1016.1 1016.1 0.0
26/12:00am 24.3 27.8 22.9 92 0.9 NNE 9 13 5 7 1016.6 1016.6 0.0
 
Date/Time
EST
Temp
°C
App
Temp
°C
Dew
Point
Rel
Hum
%
Delta-T
°C
Wind Press
QNH
hPa
Press
MSL
hPa
Rain
since 9 am
mm
Dir
 
Spd
km/h
Gust
km/h
Spd
kts
Gust
kts
25/11:30pm 24.3 27.5 23.1 93 0.8 NNE 11 17 6 9 1016.5 1016.5 0.0
25/11:00pm 24.5 28.2 23.3 93 0.8 NNE 9 13 5 7 1016.5 1016.5 0.0
25/10:30pm 24.6 28.4 23.4 93 0.8 NNE 9 13 5 7 1016.5 1016.5 0.0
25/10:00pm 24.5 28.3 23.5 94 0.7 NNE 9 13 5 7 1016.4 1016.4 0.0
25/09:30pm 24.2 27.4 23.0 93 0.8 NNE 11 15 6 8 1016.0 1016.0 0.0
25/09:00pm 24.1 27.2 22.9 93 0.8 N 11 15 6 8 1015.5 1015.5 0.0
25/08:30pm 24.2 26.6 23.0 93 0.8 NNE 15 24 8 13 1014.9 1014.9 0.0
25/08:00pm 24.1 26.6 22.5 91 1.1 N 13 20 7 11 1014.6 1014.6 0.0

Other Formats:

Comma delimited format used in spreadsheet applications
http://www.bom.gov.au/fwo/IDQ60801/IDQ60801.94570.axf

JavaScript Object Notation format (JSON) in row-major order
http://www.bom.gov.au/fwo/IDQ60801/IDQ60801.94570.json